sensor_id;sensor_type;location;lat;lon;timestamp;P1;P2;P0
72908;PMS5003;61051;62.624;17.950;2023-11-21T00:00:38;6;6;
72908;PMS5003;61051;62.624;17.950;2023-11-21T00:03:06;6;6;
72908;PMS5003;61051;62.624;17.950;2023-11-21T00:05:35;8;7;
72908;PMS5003;61051;62.624;17.950;2023-11-21T00:08:04;6;6;
72908;PMS5003;61051;62.624;17.950;2023-11-21T00:10:32;5;5;
72908;PMS5003;61051;62.624;17.950;2023-11-21T00:13:01;2;2;
72908;PMS5003;61051;62.624;17.950;2023-11-21T00:15:30;6;3;
72908;PMS5003;61051;62.624;17.950;2023-11-21T00:17:59;5;5;
72908;PMS5003;61051;62.624;17.950;2023-11-21T00:20:28;9;7;
72908;PMS5003;61051;62.624;17.950;2023-11-21T00:22:57;7;6;
72908;PMS5003;61051;62.624;17.950;2023-11-21T00:25:26;7;6;
72908;PMS5003;61051;62.624;17.950;2023-11-21T00:27:54;8;6;
72908;PMS5003;61051;62.624;17.950;2023-11-21T00:30:23;4;4;
72908;PMS5003;61051;62.624;17.950;2023-11-21T00:32:52;3;3;
72908;PMS5003;61051;62.624;17.950;2023-11-21T00:35:20;7;6;
72908;PMS5003;61051;62.624;17.950;2023-11-21T00:37:49;7;6;
72908;PMS5003;61051;62.624;17.950;2023-11-21T00:40:18;6;4;
72908;PMS5003;61051;62.624;17.950;2023-11-21T00:42:47;7;7;
72908;PMS5003;61051;62.624;17.950;2023-11-21T00:45:16;6;4;
72908;PMS5003;61051;62.624;17.950;2023-11-21T00:47:44;7;4;
72908;PMS5003;61051;62.624;17.950;2023-11-21T00:50:13;6;6;
72908;PMS5003;61051;62.624;17.950;2023-11-21T00:52:43;8;7;
72908;PMS5003;61051;62.624;17.950;2023-11-21T00:55:12;3;3;
72908;PMS5003;61051;62.624;17.950;2023-11-21T00:57:43;8;6;
72908;PMS5003;61051;62.624;17.950;2023-11-21T01:00:12;4;4;
72908;PMS5003;61051;62.624;17.950;2023-11-21T01:02:42;3;3;
72908;PMS5003;61051;62.624;17.950;2023-11-21T01:05:10;7;4;
72908;PMS5003;61051;62.624;17.950;2023-11-21T01:07:39;7;6;
72908;PMS5003;61051;62.624;17.950;2023-11-21T01:10:08;7;4;
72908;PMS5003;61051;62.624;17.950;2023-11-21T01:12:37;4;4;
72908;PMS5003;61051;62.624;17.950;2023-11-21T01:15:07;4;4;
72908;PMS5003;61051;62.624;17.950;2023-11-21T01:17:35;3;3;
72908;PMS5003;61051;62.624;17.950;2023-11-21T01:20:05;6;3;
72908;PMS5003;61051;62.624;17.950;2023-11-21T01:22:33;3;3;
72908;PMS5003;61051;62.624;17.950;2023-11-21T01:25:02;6;3;
72908;PMS5003;61051;62.624;17.950;2023-11-21T01:27:30;3;2;
72908;PMS5003;61051;62.624;17.950;2023-11-21T01:29:59;2;2;
72908;PMS5003;61051;62.624;17.950;2023-11-21T01:32:27;2;2;
72908;PMS5003;61051;62.624;17.950;2023-11-21T01:34:56;8;3;
72908;PMS5003;61051;62.624;17.950;2023-11-21T01:37:25;4;2;
72908;PMS5003;61051;62.624;17.950;2023-11-21T01:39:53;4;4;
72908;PMS5003;61051;62.624;17.950;2023-11-21T01:42:22;2;2;
72908;PMS5003;61051;62.624;17.950;2023-11-21T01:44:51;2;2;
72908;PMS5003;61051;62.624;17.950;2023-11-21T01:47:19;2;2;
72908;PMS5003;61051;62.624;17.950;2023-11-21T01:49:48;4;4;
72908;PMS5003;61051;62.624;17.950;2023-11-21T01:52:17;3;3;
72908;PMS5003;61051;62.624;17.950;2023-11-21T01:54:45;6;6;
72908;PMS5003;61051;62.624;17.950;2023-11-21T01:57:15;2;2;
72908;PMS5003;61051;62.624;17.950;2023-11-21T01:59:43;3;3;
72908;PMS5003;61051;62.624;17.950;2023-11-21T02:02:12;2;2;
72908;PMS5003;61051;62.624;17.950;2023-11-21T02:04:40;2;2;
72908;PMS5003;61051;62.624;17.950;2023-11-21T02:07:09;3;3;
72908;PMS5003;61051;62.624;17.950;2023-11-21T02:09:38;2;2;
72908;PMS5003;61051;62.624;17.950;2023-11-21T02:12:07;3;2;
72908;PMS5003;61051;62.624;17.950;2023-11-21T02:14:35;3;3;
72908;PMS5003;61051;62.624;17.950;2023-11-21T02:17:04;3;3;
72908;PMS5003;61051;62.624;17.950;2023-11-21T02:19:33;3;2;
72908;PMS5003;61051;62.624;17.950;2023-11-21T02:22:01;2;2;
72908;PMS5003;61051;62.624;17.950;2023-11-21T02:24:32;3;3;
72908;PMS5003;61051;62.624;17.950;2023-11-21T02:27:00;2;2;
72908;PMS5003;61051;62.624;17.950;2023-11-21T02:29:29;6;4;
72908;PMS5003;61051;62.624;17.950;2023-11-21T02:31:58;4;2;
72908;PMS5003;61051;62.624;17.950;2023-11-21T02:34:26;2;2;
72908;PMS5003;61051;62.624;17.950;2023-11-21T02:36:55;3;3;
72908;PMS5003;61051;62.624;17.950;2023-11-21T02:39:24;2;2;
72908;PMS5003;61051;62.624;17.950;2023-11-21T02:41:52;3;3;
72908;PMS5003;61051;62.624;17.950;2023-11-21T02:44:21;2;2;
72908;PMS5003;61051;62.624;17.950;2023-11-21T02:46:50;2;2;
72908;PMS5003;61051;62.624;17.950;2023-11-21T02:49:18;3;2;
72908;PMS5003;61051;62.624;17.950;2023-11-21T02:51:47;3;3;
72908;PMS5003;61051;62.624;17.950;2023-11-21T02:54:16;3;3;
72908;PMS5003;61051;62.624;17.950;2023-11-21T02:56:44;5;2;
72908;PMS5003;61051;62.624;17.950;2023-11-21T02:59:13;2;2;
72908;PMS5003;61051;62.624;17.950;2023-11-21T03:01:43;4;4;
72908;PMS5003;61051;62.624;17.950;2023-11-21T03:04:12;4;4;
72908;PMS5003;61051;62.624;17.950;2023-11-21T03:06:41;3;3;
72908;PMS5003;61051;62.624;17.950;2023-11-21T03:09:09;6;3;
72908;PMS5003;61051;62.624;17.950;2023-11-21T03:11:38;6;4;
72908;PMS5003;61051;62.624;17.950;2023-11-21T03:14:07;3;3;
72908;PMS5003;61051;62.624;17.950;2023-11-21T03:16:35;3;3;
72908;PMS5003;61051;62.624;17.950;2023-11-21T03:19:04;7;3;
72908;PMS5003;61051;62.624;17.950;2023-11-21T03:21:33;3;3;
72908;PMS5003;61051;62.624;17.950;2023-11-21T03:24:02;3;3;
72908;PMS5003;61051;62.624;17.950;2023-11-21T03:26:30;4;4;
72908;PMS5003;61051;62.624;17.950;2023-11-21T03:28:59;6;4;
72908;PMS5003;61051;62.624;17.950;2023-11-21T03:31:28;3;3;
72908;PMS5003;61051;62.624;17.950;2023-11-21T03:33:56;3;3;
72908;PMS5003;61051;62.624;17.950;2023-11-21T03:36:24;2;2;
72908;PMS5003;61051;62.624;17.950;2023-11-21T03:38:53;3;3;
72908;PMS5003;61051;62.624;17.950;2023-11-21T03:41:22;4;4;
72908;PMS5003;61051;62.624;17.950;2023-11-21T03:43:50;3;3;
72908;PMS5003;61051;62.624;17.950;2023-11-21T03:46:19;3;3;
72908;PMS5003;61051;62.624;17.950;2023-11-21T03:48:48;4;4;
72908;PMS5003;61051;62.624;17.950;2023-11-21T03:51:16;2;2;
72908;PMS5003;61051;62.624;17.950;2023-11-21T03:53:45;4;4;
72908;PMS5003;61051;62.624;17.950;2023-11-21T03:56:14;2;2;
72908;PMS5003;61051;62.624;17.950;2023-11-21T03:58:44;5;5;
72908;PMS5003;61051;62.624;17.950;2023-11-21T04:01:18;3;3;
72908;PMS5003;61051;62.624;17.950;2023-11-21T04:03:47;4;3;
72908;PMS5003;61051;62.624;17.950;2023-11-21T04:06:15;3;3;
72908;PMS5003;61051;62.624;17.950;2023-11-21T04:08:44;2;2;
72908;PMS5003;61051;62.624;17.950;2023-11-21T04:11:13;3;2;
72908;PMS5003;61051;62.624;17.950;2023-11-21T04:13:43;3;3;
72908;PMS5003;61051;62.624;17.950;2023-11-21T04:16:12;5;3;
72908;PMS5003;61051;62.624;17.950;2023-11-21T04:18:41;4;3;
72908;PMS5003;61051;62.624;17.950;2023-11-21T04:21:09;4;4;
72908;PMS5003;61051;62.624;17.950;2023-11-21T04:23:38;2;2;
72908;PMS5003;61051;62.624;17.950;2023-11-21T04:26:07;2;2;
72908;PMS5003;61051;62.624;17.950;2023-11-21T04:28:35;2;2;
72908;PMS5003;61051;62.624;17.950;2023-11-21T04:31:04;2;2;
72908;PMS5003;61051;62.624;17.950;2023-11-21T04:33:33;2;2;
72908;PMS5003;61051;62.624;17.950;2023-11-21T04:36:01;1;1;
72908;PMS5003;61051;62.624;17.950;2023-11-21T04:38:30;1;1;
72908;PMS5003;61051;62.624;17.950;2023-11-21T04:40:59;2;1;
72908;PMS5003;61051;62.624;17.950;2023-11-21T04:43:27;2;2;
72908;PMS5003;61051;62.624;17.950;2023-11-21T04:45:56;2;2;
72908;PMS5003;61051;62.624;17.950;2023-11-21T04:48:25;8;3;
72908;PMS5003;61051;62.624;17.950;2023-11-21T04:50:54;2;1;
72908;PMS5003;61051;62.624;17.950;2023-11-21T04:53:23;1;1;
72908;PMS5003;61051;62.624;17.950;2023-11-21T04:55:51;3;1;
72908;PMS5003;61051;62.624;17.950;2023-11-21T04:58:20;1;1;
72908;PMS5003;61051;62.624;17.950;2023-11-21T05:03:15;1;1;
72908;PMS5003;61051;62.624;17.950;2023-11-21T05:05:43;2;2;
72908;PMS5003;61051;62.624;17.950;2023-11-21T05:08:12;1;1;
72908;PMS5003;61051;62.624;17.950;2023-11-21T05:10:41;2;2;
72908;PMS5003;61051;62.624;17.950;2023-11-21T05:13:09;1;1;
72908;PMS5003;61051;62.624;17.950;2023-11-21T05:15:38;0;0;
72908;PMS5003;61051;62.624;17.950;2023-11-21T05:18:07;2;2;
72908;PMS5003;61051;62.624;17.950;2023-11-21T05:20:35;1;1;
72908;PMS5003;61051;62.624;17.950;2023-11-21T05:23:04;1;1;
72908;PMS5003;61051;62.624;17.950;2023-11-21T05:25:33;2;2;
72908;PMS5003;61051;62.624;17.950;2023-11-21T05:28:01;1;1;
72908;PMS5003;61051;62.624;17.950;2023-11-21T05:30:30;0;0;
72908;PMS5003;61051;62.624;17.950;2023-11-21T05:32:59;1;1;
72908;PMS5003;61051;62.624;17.950;2023-11-21T05:35:27;1;1;
72908;PMS5003;61051;62.624;17.950;2023-11-21T05:37:56;2;2;
72908;PMS5003;61051;62.624;17.950;2023-11-21T05:40:25;1;1;
72908;PMS5003;61051;62.624;17.950;2023-11-21T05:42:54;1;1;
72908;PMS5003;61051;62.624;17.950;2023-11-21T05:45:22;1;1;
72908;PMS5003;61051;62.624;17.950;2023-11-21T05:47:52;1;1;
72908;PMS5003;61051;62.624;17.950;2023-11-21T05:50:22;2;2;
72908;PMS5003;61051;62.624;17.950;2023-11-21T05:52:51;3;3;
72908;PMS5003;61051;62.624;17.950;2023-11-21T05:55:22;2;2;
72908;PMS5003;61051;62.624;17.950;2023-11-21T05:57:52;1;1;
72908;PMS5003;61051;62.624;17.950;2023-11-21T06:00:20;1;1;
72908;PMS5003;61051;62.624;17.950;2023-11-21T06:02:49;1;1;
72908;PMS5003;61051;62.624;17.950;2023-11-21T06:05:18;2;2;
72908;PMS5003;61051;62.624;17.950;2023-11-21T06:07:46;1;1;
72908;PMS5003;61051;62.624;17.950;2023-11-21T06:10:15;1;1;
72908;PMS5003;61051;62.624;17.950;2023-11-21T06:12:44;1;1;
72908;PMS5003;61051;62.624;17.950;2023-11-21T06:15:12;3;1;
72908;PMS5003;61051;62.624;17.950;2023-11-21T06:17:41;2;1;
72908;PMS5003;61051;62.624;17.950;2023-11-21T06:20:10;0;0;
72908;PMS5003;61051;62.624;17.950;2023-11-21T06:22:39;1;1;
72908;PMS5003;61051;62.624;17.950;2023-11-21T06:25:09;2;1;
72908;PMS5003;61051;62.624;17.950;2023-11-21T06:27:40;1;1;
72908;PMS5003;61051;62.624;17.950;2023-11-21T06:30:11;1;1;
72908;PMS5003;61051;62.624;17.950;2023-11-21T06:32:41;3;1;
72908;PMS5003;61051;62.624;17.950;2023-11-21T06:35:09;0;0;
72908;PMS5003;61051;62.624;17.950;2023-11-21T06:37:38;1;1;
72908;PMS5003;61051;62.624;17.950;2023-11-21T06:40:07;1;1;
72908;PMS5003;61051;62.624;17.950;2023-11-21T06:42:37;1;1;
72908;PMS5003;61051;62.624;17.950;2023-11-21T06:45:06;0;0;
72908;PMS5003;61051;62.624;17.950;2023-11-21T06:47:36;3;2;
72908;PMS5003;61051;62.624;17.950;2023-11-21T06:50:05;1;1;
72908;PMS5003;61051;62.624;17.950;2023-11-21T06:52:33;2;1;
72908;PMS5003;61051;62.624;17.950;2023-11-21T06:55:02;0;0;
72908;PMS5003;61051;62.624;17.950;2023-11-21T06:57:31;2;2;
72908;PMS5003;61051;62.624;17.950;2023-11-21T06:59:59;2;2;
72908;PMS5003;61051;62.624;17.950;2023-11-21T07:02:28;1;1;
72908;PMS5003;61051;62.624;17.950;2023-11-21T07:04:57;1;1;
72908;PMS5003;61051;62.624;17.950;2023-11-21T07:07:26;1;1;
72908;PMS5003;61051;62.624;17.950;2023-11-21T07:09:54;3;1;
72908;PMS5003;61051;62.624;17.950;2023-11-21T07:12:23;2;1;
72908;PMS5003;61051;62.624;17.950;2023-11-21T07:14:53;2;2;
72908;PMS5003;61051;62.624;17.950;2023-11-21T07:17:22;1;1;
72908;PMS5003;61051;62.624;17.950;2023-11-21T07:19:51;1;1;
72908;PMS5003;61051;62.624;17.950;2023-11-21T07:22:21;1;1;
72908;PMS5003;61051;62.624;17.950;2023-11-21T07:24:50;5;1;
72908;PMS5003;61051;62.624;17.950;2023-11-21T07:27:19;5;2;
72908;PMS5003;61051;62.624;17.950;2023-11-21T07:29:47;2;2;
72908;PMS5003;61051;62.624;17.950;2023-11-21T07:32:16;2;2;
72908;PMS5003;61051;62.624;17.950;2023-11-21T07:34:45;2;2;
72908;PMS5003;61051;62.624;17.950;2023-11-21T07:37:14;1;1;
72908;PMS5003;61051;62.624;17.950;2023-11-21T07:39:42;1;1;
72908;PMS5003;61051;62.624;17.950;2023-11-21T07:42:11;2;2;
72908;PMS5003;61051;62.624;17.950;2023-11-21T07:44:40;1;1;
72908;PMS5003;61051;62.624;17.950;2023-11-21T07:47:08;3;3;
72908;PMS5003;61051;62.624;17.950;2023-11-21T07:49:37;6;2;
72908;PMS5003;61051;62.624;17.950;2023-11-21T07:52:06;3;3;
72908;PMS5003;61051;62.624;17.950;2023-11-21T07:54:35;3;3;
72908;PMS5003;61051;62.624;17.950;2023-11-21T07:57:03;3;2;
72908;PMS5003;61051;62.624;17.950;2023-11-21T07:59:32;1;1;
72908;PMS5003;61051;62.624;17.950;2023-11-21T08:02:01;1;1;
72908;PMS5003;61051;62.624;17.950;2023-11-21T08:04:29;2;1;
72908;PMS5003;61051;62.624;17.950;2023-11-21T08:06:58;2;2;
72908;PMS5003;61051;62.624;17.950;2023-11-21T08:09:27;3;1;
72908;PMS5003;61051;62.624;17.950;2023-11-21T08:11:55;2;2;
72908;PMS5003;61051;62.624;17.950;2023-11-21T08:14:24;3;3;
72908;PMS5003;61051;62.624;17.950;2023-11-21T08:16:53;3;3;
72908;PMS5003;61051;62.624;17.950;2023-11-21T08:19:22;5;3;
72908;PMS5003;61051;62.624;17.950;2023-11-21T08:21:51;3;3;
72908;PMS5003;61051;62.624;17.950;2023-11-21T08:24:21;3;3;
72908;PMS5003;61051;62.624;17.950;2023-11-21T08:26:50;2;2;
72908;PMS5003;61051;62.624;17.950;2023-11-21T08:29:18;3;3;
72908;PMS5003;61051;62.624;17.950;2023-11-21T08:31:47;3;3;
72908;PMS5003;61051;62.624;17.950;2023-11-21T08:34:16;2;2;
72908;PMS5003;61051;62.624;17.950;2023-11-21T08:36:44;2;2;
72908;PMS5003;61051;62.624;17.950;2023-11-21T08:39:13;2;2;
72908;PMS5003;61051;62.624;17.950;2023-11-21T08:41:42;3;3;
72908;PMS5003;61051;62.624;17.950;2023-11-21T08:44:10;2;2;
72908;PMS5003;61051;62.624;17.950;2023-11-21T08:46:39;3;3;
72908;PMS5003;61051;62.624;17.950;2023-11-21T08:49:08;3;3;
72908;PMS5003;61051;62.624;17.950;2023-11-21T08:51:37;3;3;
72908;PMS5003;61051;62.624;17.950;2023-11-21T08:54:05;7;5;
72908;PMS5003;61051;62.624;17.950;2023-11-21T08:56:34;3;3;
72908;PMS5003;61051;62.624;17.950;2023-11-21T08:59:03;6;5;
72908;PMS5003;61051;62.624;17.950;2023-11-21T09:01:31;2;2;
72908;PMS5003;61051;62.624;17.950;2023-11-21T09:04:00;5;5;
72908;PMS5003;61051;62.624;17.950;2023-11-21T09:06:29;3;3;
72908;PMS5003;61051;62.624;17.950;2023-11-21T09:08:58;5;2;
72908;PMS5003;61051;62.624;17.950;2023-11-21T09:11:26;3;3;
72908;PMS5003;61051;62.624;17.950;2023-11-21T09:13:55;3;3;
72908;PMS5003;61051;62.624;17.950;2023-11-21T09:16:24;5;5;
72908;PMS5003;61051;62.624;17.950;2023-11-21T09:18:53;2;2;
72908;PMS5003;61051;62.624;17.950;2023-11-21T09:21:21;3;3;
72908;PMS5003;61051;62.624;17.950;2023-11-21T09:23:50;5;3;
72908;PMS5003;61051;62.624;17.950;2023-11-21T09:26:20;3;3;
72908;PMS5003;61051;62.624;17.950;2023-11-21T09:28:50;2;2;
72908;PMS5003;61051;62.624;17.950;2023-11-21T09:31:18;6;5;
72908;PMS5003;61051;62.624;17.950;2023-11-21T09:33:47;3;3;
72908;PMS5003;61051;62.624;17.950;2023-11-21T09:36:16;3;3;
72908;PMS5003;61051;62.624;17.950;2023-11-21T09:38:45;3;2;
72908;PMS5003;61051;62.624;17.950;2023-11-21T09:41:15;5;3;
72908;PMS5003;61051;62.624;17.950;2023-11-21T09:43:52;2;2;
72908;PMS5003;61051;62.624;17.950;2023-11-21T09:46:25;3;3;
72908;PMS5003;61051;62.624;17.950;2023-11-21T09:48:55;2;2;
72908;PMS5003;61051;62.624;17.950;2023-11-21T09:51:27;6;6;
72908;PMS5003;61051;62.624;17.950;2023-11-21T09:53:58;2;2;
72908;PMS5003;61051;62.624;17.950;2023-11-21T09:56:29;2;2;
72908;PMS5003;61051;62.624;17.950;2023-11-21T09:58:58;2;2;
72908;PMS5003;61051;62.624;17.950;2023-11-21T10:01:28;1;1;
72908;PMS5003;61051;62.624;17.950;2023-11-21T10:03:57;3;2;
72908;PMS5003;61051;62.624;17.950;2023-11-21T10:06:25;2;2;
72908;PMS5003;61051;62.624;17.950;2023-11-21T10:08:54;2;2;
72908;PMS5003;61051;62.624;17.950;2023-11-21T10:11:23;2;2;
72908;PMS5003;61051;62.624;17.950;2023-11-21T10:13:54;2;2;
72908;PMS5003;61051;62.624;17.950;2023-11-21T10:16:22;1;1;
72908;PMS5003;61051;62.624;17.950;2023-11-21T10:18:54;1;1;
72908;PMS5003;61051;62.624;17.950;2023-11-21T10:21:24;2;2;
72908;PMS5003;61051;62.624;17.950;2023-11-21T10:23:53;2;2;
72908;PMS5003;61051;62.624;17.950;2023-11-21T10:26:22;2;2;
72908;PMS5003;61051;62.624;17.950;2023-11-21T10:28:58;1;1;
72908;PMS5003;61051;62.624;17.950;2023-11-21T10:31:30;1;1;
72908;PMS5003;61051;62.624;17.950;2023-11-21T10:34:11;2;1;
72908;PMS5003;61051;62.624;17.950;2023-11-21T10:36:41;1;1;
72908;PMS5003;61051;62.624;17.950;2023-11-21T10:39:14;2;2;
72908;PMS5003;61051;62.624;17.950;2023-11-21T10:41:43;1;1;
72908;PMS5003;61051;62.624;17.950;2023-11-21T10:44:11;2;1;
72908;PMS5003;61051;62.624;17.950;2023-11-21T10:46:41;1;1;
72908;PMS5003;61051;62.624;17.950;2023-11-21T10:49:10;1;1;
72908;PMS5003;61051;62.624;17.950;2023-11-21T10:51:39;3;2;
72908;PMS5003;61051;62.624;17.950;2023-11-21T10:54:11;3;3;
72908;PMS5003;61051;62.624;17.950;2023-11-21T10:56:39;2;2;
72908;PMS5003;61051;62.624;17.950;2023-11-21T10:59:09;2;2;
72908;PMS5003;61051;62.624;17.950;2023-11-21T11:03:19;2;2;
72908;PMS5003;61051;62.624;17.950;2023-11-21T11:05:48;5;3;
72908;PMS5003;61051;62.624;17.950;2023-11-21T11:08:18;3;3;
72908;PMS5003;61051;62.624;17.950;2023-11-21T11:10:50;6;5;
72908;PMS5003;61051;62.624;17.950;2023-11-21T11:13:19;2;2;
72908;PMS5003;61051;62.624;17.950;2023-11-21T11:15:48;3;3;
72908;PMS5003;61051;62.624;17.950;2023-11-21T11:18:16;3;3;
72908;PMS5003;61051;62.624;17.950;2023-11-21T11:20:45;5;3;
72908;PMS5003;61051;62.624;17.950;2023-11-21T11:23:23;2;2;
72908;PMS5003;61051;62.624;17.950;2023-11-21T11:26:06;3;3;
72908;PMS5003;61051;62.624;17.950;2023-11-21T11:28:47;3;2;
72908;PMS5003;61051;62.624;17.950;2023-11-21T11:31:27;3;3;
72908;PMS5003;61051;62.624;17.950;2023-11-21T11:34:08;3;3;
72908;PMS5003;61051;62.624;17.950;2023-11-21T11:36:47;2;2;
72908;PMS5003;61051;62.624;17.950;2023-11-21T11:39:27;3;3;
72908;PMS5003;61051;62.624;17.950;2023-11-21T11:41:55;6;5;
72908;PMS5003;61051;62.624;17.950;2023-11-21T11:44:56;5;5;
72908;PMS5003;61051;62.624;17.950;2023-11-21T11:47:25;5;5;
72908;PMS5003;61051;62.624;17.950;2023-11-21T11:49:56;2;2;
72908;PMS5003;61051;62.624;17.950;2023-11-21T11:52:42;7;3;
72908;PMS5003;61051;62.624;17.950;2023-11-21T11:55:13;2;2;
72908;PMS5003;61051;62.624;17.950;2023-11-21T11:57:42;3;3;
72908;PMS5003;61051;62.624;17.950;2023-11-21T12:00:12;2;2;
72908;PMS5003;61051;62.624;17.950;2023-11-21T12:02:44;2;2;
72908;PMS5003;61051;62.624;17.950;2023-11-21T12:05:14;3;3;
72908;PMS5003;61051;62.624;17.950;2023-11-21T12:07:45;3;3;
72908;PMS5003;61051;62.624;17.950;2023-11-21T12:10:15;1;1;
72908;PMS5003;61051;62.624;17.950;2023-11-21T12:12:45;2;2;
72908;PMS5003;61051;62.624;17.950;2023-11-21T12:15:16;2;2;
72908;PMS5003;61051;62.624;17.950;2023-11-21T12:17:45;3;3;
72908;PMS5003;61051;62.624;17.950;2023-11-21T12:20:16;5;3;
72908;PMS5003;61051;62.624;17.950;2023-11-21T12:22:47;2;2;
72908;PMS5003;61051;62.624;17.950;2023-11-21T12:25:18;3;3;
72908;PMS5003;61051;62.624;17.950;2023-11-21T12:27:48;6;3;
72908;PMS5003;61051;62.624;17.950;2023-11-21T12:30:17;5;5;
72908;PMS5003;61051;62.624;17.950;2023-11-21T12:32:47;2;2;
72908;PMS5003;61051;62.624;17.950;2023-11-21T12:35:17;5;5;
72908;PMS5003;61051;62.624;17.950;2023-11-21T12:37:46;3;2;
72908;PMS5003;61051;62.624;17.950;2023-11-21T12:40:15;2;2;
72908;PMS5003;61051;62.624;17.950;2023-11-21T12:42:44;5;3;
72908;PMS5003;61051;62.624;17.950;2023-11-21T12:45:22;5;5;
72908;PMS5003;61051;62.624;17.950;2023-11-21T12:47:52;2;2;
72908;PMS5003;61051;62.624;17.950;2023-11-21T12:50:22;2;2;
72908;PMS5003;61051;62.624;17.950;2023-11-21T12:52:52;3;3;
72908;PMS5003;61051;62.624;17.950;2023-11-21T12:55:21;2;2;
72908;PMS5003;61051;62.624;17.950;2023-11-21T12:57:52;5;3;
72908;PMS5003;61051;62.624;17.950;2023-11-21T13:00:28;2;2;
72908;PMS5003;61051;62.624;17.950;2023-11-21T13:02:59;5;2;
72908;PMS5003;61051;62.624;17.950;2023-11-21T13:05:29;3;3;
72908;PMS5003;61051;62.624;17.950;2023-11-21T13:08:03;2;2;
72908;PMS5003;61051;62.624;17.950;2023-11-21T13:10:33;2;2;
72908;PMS5003;61051;62.624;17.950;2023-11-21T13:13:05;1;1;
72908;PMS5003;61051;62.624;17.950;2023-11-21T13:15:38;2;2;
72908;PMS5003;61051;62.624;17.950;2023-11-21T13:18:07;2;2;
72908;PMS5003;61051;62.624;17.950;2023-11-21T13:20:36;2;2;
72908;PMS5003;61051;62.624;17.950;2023-11-21T13:23:07;3;1;
72908;PMS5003;61051;62.624;17.950;2023-11-21T13:25:37;2;2;
72908;PMS5003;61051;62.624;17.950;2023-11-21T13:28:06;2;2;
72908;PMS5003;61051;62.624;17.950;2023-11-21T13:30:35;12;12;
72908;PMS5003;61051;62.624;17.950;2023-11-21T13:33:04;3;3;
72908;PMS5003;61051;62.624;17.950;2023-11-21T13:35:32;3;3;
72908;PMS5003;61051;62.624;17.950;2023-11-21T13:38:04;3;2;
72908;PMS5003;61051;62.624;17.950;2023-11-21T13:40:34;5;2;
72908;PMS5003;61051;62.624;17.950;2023-11-21T13:43:04;3;3;
72908;PMS5003;61051;62.624;17.950;2023-11-21T13:45:33;3;2;
72908;PMS5003;61051;62.624;17.950;2023-11-21T13:48:02;2;2;
72908;PMS5003;61051;62.624;17.950;2023-11-21T13:50:32;3;2;
72908;PMS5003;61051;62.624;17.950;2023-11-21T13:53:01;2;2;
72908;PMS5003;61051;62.624;17.950;2023-11-21T13:55:31;6;3;
72908;PMS5003;61051;62.624;17.950;2023-11-21T13:58:00;2;2;
72908;PMS5003;61051;62.624;17.950;2023-11-21T14:00:29;3;2;
72908;PMS5003;61051;62.624;17.950;2023-11-21T14:02:58;2;2;
72908;PMS5003;61051;62.624;17.950;2023-11-21T14:05:26;5;3;
72908;PMS5003;61051;62.624;17.950;2023-11-21T14:07:55;1;1;
72908;PMS5003;61051;62.624;17.950;2023-11-21T14:10:24;1;1;
72908;PMS5003;61051;62.624;17.950;2023-11-21T14:12:52;1;1;
72908;PMS5003;61051;62.624;17.950;2023-11-21T14:15:21;3;3;
72908;PMS5003;61051;62.624;17.950;2023-11-21T14:17:50;3;3;
72908;PMS5003;61051;62.624;17.950;2023-11-21T14:20:19;3;3;
72908;PMS5003;61051;62.624;17.950;2023-11-21T14:22:47;2;2;
72908;PMS5003;61051;62.624;17.950;2023-11-21T14:25:16;2;2;
72908;PMS5003;61051;62.624;17.950;2023-11-21T14:27:45;5;3;
72908;PMS5003;61051;62.624;17.950;2023-11-21T14:30:14;2;2;
72908;PMS5003;61051;62.624;17.950;2023-11-21T14:32:42;2;2;
72908;PMS5003;61051;62.624;17.950;2023-11-21T14:35:11;1;1;
72908;PMS5003;61051;62.624;17.950;2023-11-21T14:37:40;2;2;
72908;PMS5003;61051;62.624;17.950;2023-11-21T14:40:09;1;1;
72908;PMS5003;61051;62.624;17.950;2023-11-21T14:42:39;2;2;
72908;PMS5003;61051;62.624;17.950;2023-11-21T14:45:08;1;1;
72908;PMS5003;61051;62.624;17.950;2023-11-21T14:47:38;2;2;
72908;PMS5003;61051;62.624;17.950;2023-11-21T14:50:07;2;2;
72908;PMS5003;61051;62.624;17.950;2023-11-21T14:52:36;6;5;
72908;PMS5003;61051;62.624;17.950;2023-11-21T14:55:04;8;5;
72908;PMS5003;61051;62.624;17.950;2023-11-21T14:57:34;5;3;
72908;PMS5003;61051;62.624;17.950;2023-11-21T15:00:03;7;6;
72908;PMS5003;61051;62.624;17.950;2023-11-21T15:02:33;2;2;
72908;PMS5003;61051;62.624;17.950;2023-11-21T15:05:02;5;5;
72908;PMS5003;61051;62.624;17.950;2023-11-21T15:07:32;10;7;
72908;PMS5003;61051;62.624;17.950;2023-11-21T15:10:02;6;5;
72908;PMS5003;61051;62.624;17.950;2023-11-21T15:12:32;6;3;
72908;PMS5003;61051;62.624;17.950;2023-11-21T15:15:01;6;3;
72908;PMS5003;61051;62.624;17.950;2023-11-21T15:17:29;5;3;
72908;PMS5003;61051;62.624;17.950;2023-11-21T15:19:58;2;2;
72908;PMS5003;61051;62.624;17.950;2023-11-21T15:22:27;7;6;
72908;PMS5003;61051;62.624;17.950;2023-11-21T15:24:55;2;2;
72908;PMS5003;61051;62.624;17.950;2023-11-21T15:27:24;6;6;
72908;PMS5003;61051;62.624;17.950;2023-11-21T15:29:53;5;5;
72908;PMS5003;61051;62.624;17.950;2023-11-21T15:32:22;3;3;
72908;PMS5003;61051;62.624;17.950;2023-11-21T15:34:50;7;5;
72908;PMS5003;61051;62.624;17.950;2023-11-21T15:37:19;5;5;
72908;PMS5003;61051;62.624;17.950;2023-11-21T15:39:48;7;6;
72908;PMS5003;61051;62.624;17.950;2023-11-21T15:42:17;6;6;
72908;PMS5003;61051;62.624;17.950;2023-11-21T15:44:45;7;5;
72908;PMS5003;61051;62.624;17.950;2023-11-21T15:47:14;3;3;
72908;PMS5003;61051;62.624;17.950;2023-11-21T15:49:43;10;10;
72908;PMS5003;61051;62.624;17.950;2023-11-21T15:52:12;7;7;
72908;PMS5003;61051;62.624;17.950;2023-11-21T15:54:40;3;3;
72908;PMS5003;61051;62.624;17.950;2023-11-21T15:57:09;5;5;
72908;PMS5003;61051;62.624;17.950;2023-11-21T15:59:39;10;6;
72908;PMS5003;61051;62.624;17.950;2023-11-21T16:02:08;6;6;
72908;PMS5003;61051;62.624;17.950;2023-11-21T16:04:37;6;6;
72908;PMS5003;61051;62.624;17.950;2023-11-21T16:07:08;7;7;
72908;PMS5003;61051;62.624;17.950;2023-11-21T16:09:36;7;7;
72908;PMS5003;61051;62.624;17.950;2023-11-21T16:12:06;12;10;
72908;PMS5003;61051;62.624;17.950;2023-11-21T16:14:35;7;7;
72908;PMS5003;61051;62.624;17.950;2023-11-21T16:17:05;11;7;
72908;PMS5003;61051;62.624;17.950;2023-11-21T16:19:34;7;7;
72908;PMS5003;61051;62.624;17.950;2023-11-21T16:22:03;9;9;
72908;PMS5003;61051;62.624;17.950;2023-11-21T16:24:33;7;6;
72908;PMS5003;61051;62.624;17.950;2023-11-21T16:27:02;11;10;
72908;PMS5003;61051;62.624;17.950;2023-11-21T16:29:33;15;10;
72908;PMS5003;61051;62.624;17.950;2023-11-21T16:32:03;9;7;
72908;PMS5003;61051;62.624;17.950;2023-11-21T16:34:33;6;6;
72908;PMS5003;61051;62.624;17.950;2023-11-21T16:37:02;9;7;
72908;PMS5003;61051;62.624;17.950;2023-11-21T16:39:33;9;7;
72908;PMS5003;61051;62.624;17.950;2023-11-21T16:42:02;6;6;
72908;PMS5003;61051;62.624;17.950;2023-11-21T16:44:32;9;7;
72908;PMS5003;61051;62.624;17.950;2023-11-21T16:47:01;7;6;
72908;PMS5003;61051;62.624;17.950;2023-11-21T16:49:31;9;6;
72908;PMS5003;61051;62.624;17.950;2023-11-21T16:52:00;11;10;